Terminal Aerodrome Forecast
Issued by NWS Springfield, MO

Home | Current Version | Previous Version | Text Only | Print | Product List | Glossary On
Versions: 1 2 3 4 5 6 7 8 9 10 11 12 13 14 15 16 17 18 19 20 21 22 23 24 25 26 27 28 29 30 31 32 33
357
FTUS43 KSGF 251120
TAFSGF
TAF
KSGF 251120Z 2512/2612 14012KT P6SM -SHRA VCTS FEW030 BKN050CB
     FM251330 19009KT 3SM -SHRA VCTS SCT030 BKN050CB
     FM251600 26007KT 6SM -SHRA OVC045
     FM252000 27010KT P6SM VCTS OVC020CB
     FM260000 27008KT P6SM OVC010
     FM260700 23006KT 4SM BR OVC004=

USA.gov is the U.S. government's official web portal to all federal, state and local government web resources and services.